Time;durP1;ratioP1;P1;durP2;ratioP2;P2;SDS_P1;SDS_P2;PMS_P1;PMS_P2;Temp;Humidity;BMP_temperature;BMP_pressure;BME280_temperature;BME280_humidity;BME280_pressure;Samples;Min_cycle;Max_cycle;Signal;HPM_P1;HPM_P2
2023/12/16 00:01:06;;;;;;;9.03;8.17;;;9.40;99.90;;;;;;941722;148;27416;-85
2023/12/16 00:03:33;;;;;;;8.53;7.73;;;9.40;99.90;;;;;;940500;148;27283;-84
2023/12/16 00:06:00;;;;;;;9.37;8.40;;;9.40;99.90;;;;;;940050;148;27306;-83
2023/12/16 00:08:26;;;;;;;9.67;8.73;;;9.40;99.90;;;;;;940919;148;27380;-84
2023/12/16 00:10:53;;;;;;;9.17;7.97;;;9.40;99.90;;;;;;940837;148;27444;-84
2023/12/16 00:13:19;;;;;;;8.93;7.57;;;9.40;99.90;;;;;;934481;148;27448;-83
2023/12/16 00:15:46;;;;;;;9.17;8.10;;;9.40;99.90;;;;;;934474;149;27373;-84
2023/12/16 00:18:13;;;;;;;10.13;8.73;;;9.40;99.90;;;;;;934259;149;27404;-83
2023/12/16 00:20:39;;;;;;;11.67;8.37;;;9.40;99.90;;;;;;932271;149;27366;-82
2023/12/16 00:23:06;;;;;;;8.90;8.00;;;9.40;99.90;;;;;;933002;149;27477;-81
2023/12/16 00:25:32;;;;;;;9.33;8.20;;;9.40;99.90;;;;;;933107;149;27461;-81
2023/12/16 00:27:59;;;;;;;10.10;8.70;;;9.40;99.90;;;;;;933873;149;27288;-81
2023/12/16 00:30:26;;;;;;;8.73;7.70;;;9.30;99.90;;;;;;934540;149;27369;-81
2023/12/16 00:32:52;;;;;;;9.80;8.80;;;9.30;99.90;;;;;;932992;149;27441;-85
2023/12/16 00:35:19;;;;;;;10.00;8.37;;;9.30;99.90;;;;;;936323;149;27368;-84
2023/12/16 00:37:45;;;;;;;8.10;7.30;;;9.30;99.90;;;;;;934677;149;27329;-84
2023/12/16 00:40:12;;;;;;;8.17;7.37;;;9.30;99.90;;;;;;934546;149;27325;-83
2023/12/16 00:42:39;;;;;;;10.63;8.23;;;9.30;99.90;;;;;;934715;149;27479;-81
2023/12/16 00:45:06;;;;;;;8.83;8.00;;;9.30;99.90;;;;;;934191;149;27375;-84
2023/12/16 00:47:32;;;;;;;8.00;7.17;;;9.30;99.90;;;;;;932864;149;27499;-83
2023/12/16 00:49:58;;;;;;;8.63;7.73;;;9.30;99.90;;;;;;931227;150;27426;-83
2023/12/16 00:52:25;;;;;;;9.00;7.97;;;9.30;99.90;;;;;;933697;149;27364;-83
2023/12/16 00:54:51;;;;;;;8.30;7.50;;;9.30;99.90;;;;;;933584;152;27466;-84
2023/12/16 00:57:18;;;;;;;8.83;7.40;;;9.30;99.90;;;;;;933149;149;28004;-83
2023/12/16 00:59:45;;;;;;;8.47;7.30;;;9.30;99.90;;;;;;934367;149;27333;-84
2023/12/16 01:02:11;;;;;;;8.23;7.40;;;9.20;99.90;;;;;;933808;149;27442;-83
2023/12/16 01:04:38;;;;;;;8.10;7.20;;;9.30;99.90;;;;;;934784;149;27417;-83
2023/12/16 01:07:04;;;;;;;7.50;6.80;;;9.20;99.90;;;;;;933167;150;27490;-83
2023/12/16 01:09:31;;;;;;;8.00;7.30;;;9.30;99.90;;;;;;935215;152;27290;-83
2023/12/16 01:11:58;;;;;;;9.37;7.77;;;9.20;99.90;;;;;;934229;152;27397;-84
2023/12/16 01:14:24;;;;;;;9.30;6.60;;;9.20;99.90;;;;;;937305;149;27396;-81
2023/12/16 01:16:51;;;;;;;7.60;6.80;;;9.30;99.90;;;;;;934076;149;27379;-85
2023/12/16 01:19:18;;;;;;;7.97;7.20;;;9.20;99.90;;;;;;935605;149;27477;-84
2023/12/16 01:21:45;;;;;;;7.97;7.17;;;9.20;99.90;;;;;;926260;150;27355;-84
2023/12/16 01:24:12;;;;;;;10.07;7.53;;;9.20;99.90;;;;;;942268;147;28674;-83
2023/12/16 01:26:38;;;;;;;8.60;6.80;;;9.20;99.90;;;;;;943917;147;27317;-84
2023/12/16 01:29:05;;;;;;;8.70;7.80;;;9.20;99.90;;;;;;927030;149;27423;-83
2023/12/16 01:31:31;;;;;;;8.80;7.90;;;9.20;99.90;;;;;;929153;150;27272;-84
2023/12/16 01:33:58;;;;;;;8.00;7.20;;;9.20;99.90;;;;;;941805;147;27416;-83
2023/12/16 01:36:25;;;;;;;7.90;7.20;;;9.20;99.90;;;;;;935524;148;27943;-84
2023/12/16 01:38:51;;;;;;;8.60;7.57;;;9.20;99.90;;;;;;936203;149;27402;-85
2023/12/16 01:41:18;;;;;;;7.80;7.03;;;9.20;99.90;;;;;;936595;148;27385;-83
2023/12/16 01:43:44;;;;;;;9.63;7.83;;;9.20;99.90;;;;;;936567;149;27795;-81
2023/12/16 01:46:11;;;;;;;8.93;8.00;;;9.20;99.90;;;;;;935453;149;27357;-81
2023/12/16 01:48:40;;;;;;;8.73;7.70;;;9.20;99.90;;;;;;936272;149;27348;-81
2023/12/16 01:51:04;;;;;;;8.97;7.17;;;9.20;99.90;;;;;;936474;150;27388;-81
2023/12/16 01:53:31;;;;;;;10.70;7.63;;;9.20;99.90;;;;;;943836;147;28130;-81
2023/12/16 01:55:57;;;;;;;7.97;7.13;;;9.20;99.90;;;;;;927808;149;27687;-81
2023/12/16 01:58:24;;;;;;;8.43;7.63;;;9.20;99.90;;;;;;931836;149;27314;-81
2023/12/16 02:00:53;;;;;;;9.60;8.30;;;9.20;99.90;;;;;;921515;151;27461;-81
2023/12/16 02:03:20;;;;;;;9.37;8.00;;;9.20;99.90;;;;;;943393;147;27394;-81
2023/12/16 02:05:47;;;;;;;8.30;7.50;;;9.20;99.90;;;;;;943649;146;27325;-81
2023/12/16 02:08:13;;;;;;;8.33;7.37;;;9.20;99.90;;;;;;928293;149;27374;-81
2023/12/16 02:10:40;;;;;;;9.03;8.13;;;9.20;99.90;;;;;;925103;150;27407;-82
2023/12/16 02:13:06;;;;;;;9.20;8.17;;;9.20;99.90;;;;;;927972;150;27774;-81
2023/12/16 02:15:33;;;;;;;11.37;8.47;;;9.20;99.90;;;;;;938672;148;27466;-81
2023/12/16 02:17:59;;;;;;;11.60;8.40;;;9.20;99.90;;;;;;938948;148;27368;-81
2023/12/16 02:20:26;;;;;;;9.07;8.07;;;9.20;99.90;;;;;;955440;145;27313;-81
2023/12/16 02:22:53;;;;;;;8.80;8.00;;;9.10;99.90;;;;;;937460;148;27364;-81
2023/12/16 02:25:19;;;;;;;10.87;8.53;;;9.20;99.90;;;;;;937683;148;27401;-81
2023/12/16 02:27:46;;;;;;;9.47;8.47;;;9.10;99.90;;;;;;939963;148;27375;-81
2023/12/16 02:30:12;;;;;;;9.43;8.33;;;9.10;99.90;;;;;;935641;149;28543;-81
2023/12/16 02:32:41;;;;;;;9.50;8.57;;;9.10;99.90;;;;;;937327;148;27303;-81
2023/12/16 02:35:06;;;;;;;8.47;7.67;;;9.10;99.90;;;;;;940524;148;27361;-81
2023/12/16 02:37:32;;;;;;;10.73;8.90;;;9.20;99.90;;;;;;939614;148;27423;-81
2023/12/16 02:39:59;;;;;;;9.13;8.23;;;9.10;99.90;;;;;;954630;145;27884;-81
2023/12/16 02:42:26;;;;;;;11.57;8.87;;;9.20;99.90;;;;;;944271;148;27346;-81
2023/12/16 02:44:52;;;;;;;10.47;9.37;;;9.10;99.90;;;;;;954261;146;27278;-80
2023/12/16 02:47:19;;;;;;;9.70;8.80;;;9.20;99.90;;;;;;938281;148;27373;-81
2023/12/16 02:49:45;;;;;;;10.03;9.07;;;9.10;99.90;;;;;;943531;148;27385;-80
2023/12/16 02:52:12;;;;;;;9.70;8.77;;;9.10;99.90;;;;;;944086;149;28743;-80
2023/12/16 02:54:38;;;;;;;11.47;9.10;;;9.10;99.90;;;;;;940393;148;27317;-81
2023/12/16 02:57:05;;;;;;;12.20;8.97;;;9.10;99.90;;;;;;938891;148;27345;-81
2023/12/16 02:59:32;;;;;;;10.10;9.10;;;9.10;99.90;;;;;;939073;149;27362;-81
2023/12/16 03:01:58;;;;;;;9.73;8.73;;;9.10;99.90;;;;;;938018;148;27443;-81
2023/12/16 03:04:25;;;;;;;10.93;8.73;;;9.10;99.90;;;;;;937475;148;27336;-81
2023/12/16 03:06:51;;;;;;;10.83;8.90;;;9.10;99.90;;;;;;947733;148;27312;-81
2023/12/16 03:09:18;;;;;;;10.33;9.13;;;9.10;99.90;;;;;;935307;149;27405;-81
2023/12/16 03:11:44;;;;;;;10.80;8.77;;;9.10;99.90;;;;;;936489;149;27458;-81
2023/12/16 03:14:11;;;;;;;9.97;8.97;;;9.10;99.90;;;;;;952369;148;27801;-81
2023/12/16 03:16:38;;;;;;;10.00;9.00;;;9.00;99.90;;;;;;941307;148;27328;-81
2023/12/16 03:19:04;;;;;;;11.20;9.17;;;9.00;99.90;;;;;;933049;151;27333;-81
2023/12/16 03:21:31;;;;;;;10.47;8.83;;;9.00;99.90;;;;;;940079;148;27335;-81
2023/12/16 03:23:57;;;;;;;10.37;9.17;;;8.90;99.90;;;;;;941740;148;27463;-81
2023/12/16 03:26:25;;;;;;;9.47;8.47;;;9.00;99.90;;;;;;942113;148;28442;-81
2023/12/16 03:28:51;;;;;;;10.13;8.57;;;8.90;99.90;;;;;;942058;148;27276;-81
2023/12/16 03:31:17;;;;;;;9.20;8.17;;;8.90;99.90;;;;;;941757;148;27356;-81
2023/12/16 03:33:44;;;;;;;9.33;8.43;;;8.90;99.90;;;;;;942121;148;27471;-81
2023/12/16 03:36:10;;;;;;;8.93;8.03;;;8.90;99.90;;;;;;941514;148;27373;-81
2023/12/16 03:38:37;;;;;;;8.67;7.87;;;8.90;99.90;;;;;;941467;148;27347;-82
2023/12/16 03:41:03;;;;;;;8.67;7.67;;;8.90;99.90;;;;;;940090;148;27353;-81
2023/12/16 03:43:30;;;;;;;10.03;7.73;;;8.90;99.90;;;;;;941496;148;27425;-81
2023/12/16 03:45:57;;;;;;;8.43;7.57;;;8.90;99.90;;;;;;941498;148;27486;-81
2023/12/16 03:48:24;;;;;;;10.20;7.97;;;8.90;99.90;;;;;;940585;148;27467;-81
2023/12/16 03:50:50;;;;;;;8.83;7.90;;;8.90;99.90;;;;;;943069;148;27424;-81
2023/12/16 03:53:16;;;;;;;7.93;7.13;;;8.90;99.90;;;;;;940584;148;27311;-80
2023/12/16 03:55:43;;;;;;;8.83;7.53;;;8.90;99.90;;;;;;941369;148;27547;-80
2023/12/16 03:58:10;;;;;;;8.97;7.90;;;8.90;99.90;;;;;;940407;148;27347;-80
2023/12/16 04:00:36;;;;;;;10.13;7.93;;;8.90;99.90;;;;;;940888;148;28209;-80
2023/12/16 04:03:03;;;;;;;7.53;6.50;;;8.90;99.90;;;;;;941628;148;27333;-80
2023/12/16 04:05:29;;;;;;;8.57;7.17;;;9.00;99.90;;;;;;941740;148;27775;-80
2023/12/16 04:07:56;;;;;;;8.27;6.60;;;8.90;99.90;;;;;;940835;148;27398;-79
2023/12/16 04:10:23;;;;;;;7.73;6.80;;;8.90;99.90;;;;;;939773;148;28411;-78
2023/12/16 04:12:49;;;;;;;7.83;7.07;;;8.90;99.90;;;;;;941025;148;27429;-78
2023/12/16 04:15:16;;;;;;;7.33;6.63;;;9.00;99.90;;;;;;938103;148;27388;-79
2023/12/16 04:17:42;;;;;;;7.23;6.50;;;9.00;99.90;;;;;;934748;148;27392;-79
2023/12/16 04:20:09;;;;;;;9.23;6.87;;;8.90;99.90;;;;;;934654;148;27467;-78
2023/12/16 04:22:37;;;;;;;10.43;7.33;;;8.90;99.90;;;;;;935189;148;27361;-78
2023/12/16 04:25:09;;;;;;;9.60;7.53;;;8.90;99.90;;;;;;936341;148;27463;-79
2023/12/16 04:27:29;;;;;;;8.13;7.33;;;9.00;99.90;;;;;;936340;148;27303;-79
2023/12/16 04:29:55;;;;;;;8.00;6.60;;;9.00;99.90;;;;;;934002;148;27383;-78
2023/12/16 04:32:22;;;;;;;9.23;6.70;;;8.90;99.90;;;;;;936093;148;27708;-79
2023/12/16 04:34:48;;;;;;;9.60;6.63;;;8.90;99.90;;;;;;937242;148;27377;-79
2023/12/16 04:37:15;;;;;;;8.27;6.93;;;9.00;99.90;;;;;;935194;148;27442;-80
2023/12/16 04:39:42;;;;;;;8.00;6.50;;;9.00;99.90;;;;;;933650;148;27384;-78
2023/12/16 04:42:10;;;;;;;7.77;6.50;;;9.00;99.90;;;;;;935986;148;27404;-79
2023/12/16 04:44:35;;;;;;;7.43;6.63;;;9.00;99.90;;;;;;934288;148;27471;-79
2023/12/16 04:47:01;;;;;;;8.47;6.63;;;9.00;99.90;;;;;;934665;148;27310;-79
2023/12/16 04:49:28;;;;;;;11.70;7.67;;;9.00;99.90;;;;;;934653;148;27364;-81
2023/12/16 04:51:54;;;;;;;9.03;7.20;;;9.00;99.90;;;;;;936240;148;27892;-79
2023/12/16 04:54:21;;;;;;;8.70;6.77;;;9.00;99.90;;;;;;936524;148;27310;-79
2023/12/16 04:56:48;;;;;;;7.63;6.83;;;9.00;99.90;;;;;;936439;148;27332;-78
2023/12/16 04:59:14;;;;;;;8.00;7.20;;;9.00;99.90;;;;;;935553;148;27497;-80
2023/12/16 05:01:41;;;;;;;7.70;6.57;;;9.00;99.90;;;;;;936643;148;27474;-78
2023/12/16 05:04:07;;;;;;;7.70;6.80;;;9.00;99.90;;;;;;934675;148;28401;-79
2023/12/16 05:06:34;;;;;;;7.80;7.00;;;8.90;99.90;;;;;;934098;148;27341;-83
2023/12/16 05:09:01;;;;;;;10.53;7.50;;;8.90;99.90;;;;;;936870;148;27365;-83
2023/12/16 05:11:27;;;;;;;11.60;7.00;;;8.90;99.90;;;;;;936462;148;27409;-82
2023/12/16 05:13:54;;;;;;;9.37;7.30;;;8.90;99.90;;;;;;937615;148;27370;-84
2023/12/16 05:16:20;;;;;;;9.17;7.20;;;9.00;99.90;;;;;;936397;148;27371;-84
2023/12/16 05:18:47;;;;;;;9.30;7.40;;;9.00;99.90;;;;;;930397;152;27318;-84
2023/12/16 05:21:13;;;;;;;8.87;6.67;;;9.00;99.90;;;;;;923866;150;27888;-83
2023/12/16 05:23:40;;;;;;;8.87;7.20;;;9.00;99.90;;;;;;949054;148;27471;-84
2023/12/16 05:26:07;;;;;;;8.80;7.10;;;9.00;99.90;;;;;;929808;150;28359;-83
2023/12/16 05:28:33;;;;;;;7.37;6.67;;;9.00;99.90;;;;;;923408;150;27360;-84
2023/12/16 05:31:00;;;;;;;7.50;6.00;;;9.00;99.90;;;;;;945377;148;27412;-83
2023/12/16 05:33:26;;;;;;;6.60;5.97;;;9.00;99.90;;;;;;929566;150;27369;-81
2023/12/16 05:35:53;;;;;;;7.83;6.30;;;9.00;99.90;;;;;;929230;151;27957;-84
2023/12/16 05:38:20;;;;;;;7.20;6.50;;;9.00;99.90;;;;;;930583;150;27442;-84
2023/12/16 05:40:46;;;;;;;9.07;6.07;;;9.00;99.90;;;;;;924534;150;27438;-84
2023/12/16 05:43:13;;;;;;;7.37;5.90;;;9.00;99.90;;;;;;949255;148;27303;-83
2023/12/16 05:45:39;;;;;;;8.27;5.50;;;9.00;99.90;;;;;;927799;150;27916;-84
2023/12/16 05:48:06;;;;;;;7.80;6.20;;;9.10;99.90;;;;;;933188;149;27277;-84
2023/12/16 05:50:32;;;;;;;9.13;6.20;;;9.00;99.90;;;;;;933044;152;27418;-84
2023/12/16 05:52:59;;;;;;;9.67;6.27;;;9.10;99.90;;;;;;939461;150;27390;-84
2023/12/16 05:55:26;;;;;;;8.67;6.33;;;9.10;99.90;;;;;;931871;151;27482;-84
2023/12/16 05:57:52;;;;;;;7.87;6.83;;;9.10;99.90;;;;;;929157;150;27409;-85
2023/12/16 06:00:19;;;;;;;6.87;6.17;;;9.10;99.90;;;;;;924336;150;27327;-84
2023/12/16 06:02:45;;;;;;;7.53;5.77;;;9.10;99.90;;;;;;934343;151;27329;-85
2023/12/16 06:05:12;;;;;;;8.53;5.73;;;9.10;99.90;;;;;;923568;150;27404;-84
2023/12/16 06:07:39;;;;;;;5.70;5.20;;;9.10;99.90;;;;;;947522;148;27795;-85
2023/12/16 06:10:05;;;;;;;7.37;5.93;;;9.10;99.90;;;;;;930890;152;27354;-85
2023/12/16 06:12:32;;;;;;;6.67;6.03;;;9.10;99.90;;;;;;931095;151;27305;-85
2023/12/16 06:14:58;;;;;;;6.67;5.60;;;9.10;99.90;;;;;;921307;151;27342;-79
2023/12/16 06:17:25;;;;;;;8.13;6.23;;;9.20;99.90;;;;;;936850;148;27386;-78
2023/12/16 06:19:52;;;;;;;6.63;5.87;;;9.10;99.90;;;;;;941725;148;27423;-79
2023/12/16 06:22:18;;;;;;;6.43;5.40;;;9.10;99.90;;;;;;940493;148;27271;-79
2023/12/16 06:24:45;;;;;;;7.87;5.67;;;9.20;99.90;;;;;;940613;148;27437;-79
2023/12/16 06:27:11;;;;;;;9.17;5.97;;;9.20;99.90;;;;;;940203;148;27372;-80
2023/12/16 06:29:38;;;;;;;7.03;5.57;;;9.10;99.90;;;;;;946645;147;27383;-78
2023/12/16 06:32:04;;;;;;;7.90;6.03;;;9.20;99.90;;;;;;943855;147;27288;-79
2023/12/16 06:34:31;;;;;;;6.43;5.57;;;9.20;99.90;;;;;;945442;147;27817;-79
2023/12/16 06:36:58;;;;;;;6.57;5.97;;;9.20;99.90;;;;;;932431;148;27357;-79
2023/12/16 06:39:24;;;;;;;6.43;5.73;;;9.20;99.90;;;;;;943345;148;27529;-79
2023/12/16 06:41:51;;;;;;;7.03;5.33;;;9.20;99.90;;;;;;942986;148;27378;-78
2023/12/16 06:44:17;;;;;;;6.43;5.83;;;9.20;99.90;;;;;;942734;148;27448;-78
2023/12/16 06:46:44;;;;;;;8.63;5.83;;;9.10;99.90;;;;;;942137;148;27412;-79
2023/12/16 06:49:10;;;;;;;6.77;5.30;;;9.10;99.90;;;;;;943933;148;27348;-81
2023/12/16 06:51:37;;;;;;;9.93;5.90;;;9.10;99.90;;;;;;942897;148;27370;-78
2023/12/16 06:54:04;;;;;;;7.97;6.30;;;9.10;99.90;;;;;;943381;148;27333;-78
2023/12/16 06:56:30;;;;;;;8.33;6.10;;;9.10;99.90;;;;;;943066;148;27347;-78
2023/12/16 06:58:57;;;;;;;7.30;6.30;;;9.10;99.90;;;;;;942013;148;27370;-80
2023/12/16 07:01:23;;;;;;;7.53;5.60;;;9.10;99.90;;;;;;944273;148;27403;-81
2023/12/16 07:03:50;;;;;;;8.33;5.87;;;9.00;99.90;;;;;;943923;148;27376;-79
2023/12/16 07:06:20;;;;;;;7.57;6.07;;;9.10;99.90;;;;;;942212;148;27372;-78
2023/12/16 07:08:46;;;;;;;6.93;6.33;;;9.00;99.90;;;;;;944293;148;27359;-79
2023/12/16 07:11:13;;;;;;;7.73;5.87;;;9.00;99.90;;;;;;941498;148;27384;-81
2023/12/16 07:13:39;;;;;;;6.77;5.90;;;9.00;99.90;;;;;;947267;147;27922;-80
2023/12/16 07:16:06;;;;;;;6.67;5.70;;;9.00;99.90;;;;;;940728;148;27412;-79
2023/12/16 07:18:32;;;;;;;9.03;6.00;;;9.00;99.90;;;;;;919808;150;27508;-78
2023/12/16 07:20:59;;;;;;;9.23;6.67;;;9.10;99.90;;;;;;932876;150;27328;-81
2023/12/16 07:23:28;;;;;;;8.63;6.40;;;9.10;99.90;;;;;;930666;150;28249;-81
2023/12/16 07:25:52;;;;;;;8.80;6.53;;;9.10;99.90;;;;;;932185;149;27440;-79
2023/12/16 07:28:21;;;;;;;8.17;6.17;;;9.10;99.90;;;;;;931833;149;27404;-80
2023/12/16 07:30:45;;;;;;;8.83;6.23;;;9.10;99.90;;;;;;931142;149;27293;-80
2023/12/16 07:33:12;;;;;;;7.37;5.73;;;9.10;99.90;;;;;;925884;149;27400;-80
2023/12/16 07:35:39;;;;;;;7.77;6.20;;;9.10;99.90;;;;;;926853;149;27483;-81
2023/12/16 07:38:05;;;;;;;7.63;5.37;;;9.10;99.90;;;;;;920396;150;27417;-82
2023/12/16 07:40:32;;;;;;;6.93;5.87;;;9.10;99.90;;;;;;926661;149;27305;-82
2023/12/16 07:42:58;;;;;;;8.27;6.17;;;9.10;99.90;;;;;;928716;149;27353;-82
2023/12/16 07:45:25;;;;;;;6.87;5.17;;;9.10;99.90;;;;;;920529;150;27378;-82
2023/12/16 07:47:51;;;;;;;7.00;5.60;;;9.20;99.90;;;;;;941255;147;27356;-82
2023/12/16 07:50:20;;;;;;;7.97;5.33;;;9.10;99.90;;;;;;926270;149;27334;-81
2023/12/16 07:52:44;;;;;;;8.93;5.70;;;9.20;99.90;;;;;;929497;150;27342;-81
2023/12/16 07:55:11;;;;;;;6.03;4.83;;;9.20;99.90;;;;;;926537;150;27334;-82
2023/12/16 07:57:38;;;;;;;5.77;5.17;;;9.20;99.90;;;;;;925829;150;27489;-81
2023/12/16 08:00:04;;;;;;;5.77;5.03;;;9.20;99.90;;;;;;927901;150;27390;-81
2023/12/16 08:02:31;;;;;;;6.60;4.80;;;9.20;99.90;;;;;;942816;147;27257;-82
2023/12/16 08:04:57;;;;;;;7.47;5.43;;;9.30;99.90;;;;;;927370;149;27296;-82
2023/12/16 08:07:24;;;;;;;9.63;6.37;;;9.30;99.90;;;;;;920676;151;27358;-82
2023/12/16 08:09:51;;;;;;;6.03;5.20;;;9.30;99.90;;;;;;943410;147;27722;-82
2023/12/16 08:12:17;;;;;;;8.23;6.03;;;9.30;99.90;;;;;;942537;147;27376;-82
2023/12/16 08:14:44;;;;;;;8.90;5.97;;;9.30;99.90;;;;;;927558;150;27283;-82
2023/12/16 08:17:10;;;;;;;6.03;5.17;;;9.40;99.90;;;;;;944858;147;27387;-82
2023/12/16 08:19:37;;;;;;;9.93;6.00;;;9.40;99.90;;;;;;955038;146;27499;-82
2023/12/16 08:22:04;;;;;;;6.90;5.70;;;9.40;99.90;;;;;;955778;146;27818;-82
2023/12/16 08:24:32;;;;;;;6.77;5.17;;;9.50;99.90;;;;;;955397;146;27830;-82
2023/12/16 08:26:57;;;;;;;6.87;6.13;;;9.50;99.90;;;;;;956513;146;27374;-82
2023/12/16 08:29:23;;;;;;;6.67;5.37;;;9.50;99.90;;;;;;956872;146;27346;-82
2023/12/16 08:31:50;;;;;;;8.13;6.13;;;9.60;99.90;;;;;;956026;146;27468;-81
2023/12/16 08:34:16;;;;;;;9.47;6.43;;;9.60;99.90;;;;;;954979;146;27409;-82
2023/12/16 08:36:44;;;;;;;7.97;6.00;;;9.60;99.90;;;;;;956708;146;27347;-82
2023/12/16 08:39:10;;;;;;;6.43;5.60;;;9.70;99.90;;;;;;954719;146;27341;-82
2023/12/16 08:41:36;;;;;;;8.00;6.30;;;9.70;99.90;;;;;;956361;146;27802;-82
2023/12/16 08:44:03;;;;;;;9.33;7.27;;;9.80;99.90;;;;;;955209;146;27332;-83
2023/12/16 08:46:29;;;;;;;11.03;7.07;;;9.80;99.90;;;;;;954988;146;27392;-80
2023/12/16 08:48:56;;;;;;;7.07;6.33;;;9.90;99.90;;;;;;956521;146;27266;-80
2023/12/16 08:51:23;;;;;;;8.57;6.50;;;9.90;99.90;;;;;;957008;146;27375;-79
2023/12/16 08:53:49;;;;;;;7.10;5.47;;;10.00;99.90;;;;;;955616;146;27303;-80
2023/12/16 08:56:17;;;;;;;7.50;5.30;;;10.00;99.90;;;;;;955325;146;27334;-80
2023/12/16 08:58:42;;;;;;;6.43;4.97;;;10.10;99.90;;;;;;956927;146;27294;-80
2023/12/16 09:01:09;;;;;;;6.17;5.07;;;10.10;99.90;;;;;;954912;146;27488;-81
2023/12/16 09:03:36;;;;;;;6.33;5.17;;;10.20;99.90;;;;;;955344;146;27468;-80
2023/12/16 09:06:02;;;;;;;6.37;4.73;;;10.30;99.90;;;;;;955886;146;27301;-80
2023/12/16 09:08:30;;;;;;;6.37;5.10;;;10.30;99.90;;;;;;957116;146;27338;-80
2023/12/16 09:10:55;;;;;;;8.57;5.13;;;10.40;99.90;;;;;;954292;146;27316;-80
2023/12/16 09:13:22;;;;;;;7.43;5.13;;;10.40;99.90;;;;;;955885;146;27346;-80
2023/12/16 09:15:48;;;;;;;10.93;5.90;;;10.50;99.90;;;;;;955726;146;27374;-80
2023/12/16 09:18:15;;;;;;;7.30;5.20;;;10.60;99.90;;;;;;953689;146;27365;-80
2023/12/16 09:20:42;;;;;;;6.73;5.53;;;10.60;99.90;;;;;;943047;147;27300;-80
2023/12/16 09:23:08;;;;;;;7.37;5.73;;;10.70;99.90;;;;;;942678;147;27436;-81
2023/12/16 09:25:35;;;;;;;8.40;5.47;;;10.70;99.90;;;;;;942105;147;27486;-80
2023/12/16 09:28:01;;;;;;;8.17;5.97;;;10.80;99.90;;;;;;941700;147;27344;-80
2023/12/16 09:30:28;;;;;;;8.03;5.87;;;10.80;99.90;;;;;;943260;147;27299;-80
2023/12/16 09:32:55;;;;;;;7.75;5.90;;;10.90;99.90;;;;;;943764;147;27322;-82
2023/12/16 09:35:21;;;;;;;7.70;5.60;;;10.90;99.90;;;;;;943546;147;27365;-81
2023/12/16 09:37:48;;;;;;;7.83;5.60;;;11.00;99.90;;;;;;942737;147;27346;-81
2023/12/16 09:40:14;;;;;;;8.13;5.90;;;11.00;99.90;;;;;;943957;147;27337;-82
2023/12/16 09:42:41;;;;;;;8.03;5.50;;;11.10;99.90;;;;;;943585;147;27691;-81
2023/12/16 09:45:08;;;;;;;10.00;6.60;;;11.10;99.90;;;;;;941626;147;28279;-83
2023/12/16 09:47:34;;;;;;;10.67;5.80;;;11.20;99.90;;;;;;943335;147;27382;-81
2023/12/16 09:50:01;;;;;;;9.13;5.77;;;11.30;99.90;;;;;;943644;147;27338;-81
2023/12/16 09:52:27;;;;;;;6.53;5.27;;;11.30;99.90;;;;;;942719;147;27411;-82
2023/12/16 09:54:54;;;;;;;6.97;5.15;;;11.40;99.90;;;;;;942171;147;27273;-82
2023/12/16 09:57:21;;;;;;;11.57;5.20;;;11.40;99.90;;;;;;925764;150;27577;-81
2023/12/16 09:59:47;;;;;;;7.40;4.87;;;11.50;99.90;;;;;;918975;150;28559;-81
2023/12/16 10:02:14;;;;;;;10.87;4.97;;;11.50;99.90;;;;;;918594;150;27307;-82
2023/12/16 10:04:40;;;;;;;6.40;5.23;;;11.60;99.90;;;;;;922488;150;27361;-81
2023/12/16 10:07:09;;;;;;;7.07;5.10;;;11.60;99.90;;;;;;927361;150;27326;-81
2023/12/16 10:09:34;;;;;;;5.43;4.80;;;11.60;99.90;;;;;;918249;150;27366;-81
2023/12/16 10:12:00;;;;;;;6.15;4.75;;;11.70;99.90;;;;;;935023;149;27293;-81
2023/12/16 10:14:27;;;;;;;6.58;5.55;;;11.80;99.90;;;;;;933199;149;27293;-81
2023/12/16 10:17:05;;;;;;;9.43;5.03;;;11.80;99.90;;;;;;933357;149;27345;-82
2023/12/16 10:19:31;;;;;;;8.88;5.53;;;11.80;99.90;;;;;;935888;149;27542;-82
2023/12/16 10:21:58;;;;;;;6.28;5.30;;;11.90;99.90;;;;;;936111;148;27447;-81
2023/12/16 10:24:25;;;;;;;7.47;4.97;;;11.90;99.90;;;;;;933690;149;27459;-82
2023/12/16 10:26:51;;;;;;;6.20;5.20;;;11.90;99.90;;;;;;936800;149;27423;-83
2023/12/16 10:29:18;;;;;;;7.10;4.50;;;12.00;99.90;;;;;;934212;149;27403;-81
2023/12/16 10:31:44;;;;;;;5.20;4.50;;;12.00;99.90;;;;;;924112;150;27280;-81
2023/12/16 10:34:11;;;;;;;7.87;4.40;;;12.00;99.90;;;;;;926204;150;27384;-82
2023/12/16 10:36:38;;;;;;;6.95;4.55;;;12.10;99.90;;;;;;935192;149;27321;-82
2023/12/16 10:39:04;;;;;;;7.40;4.15;;;12.10;99.90;;;;;;918724;151;27465;-82
2023/12/16 10:41:31;;;;;;;6.75;4.15;;;12.10;99.90;;;;;;932771;148;27516;-81
2023/12/16 10:43:57;;;;;;;6.37;4.67;;;12.20;99.90;;;;;;942011;147;27353;-81
2023/12/16 10:46:24;;;;;;;7.47;4.55;;;12.20;99.90;;;;;;926770;149;27354;-82
2023/12/16 10:48:51;;;;;;;5.50;4.37;;;12.20;99.90;;;;;;919377;151;27363;-82
2023/12/16 10:51:17;;;;;;;5.67;4.43;;;12.20;99.90;;;;;;943064;147;27431;-81
2023/12/16 10:53:46;;;;;;;5.90;4.55;;;12.30;99.90;;;;;;933238;149;27399;-81
2023/12/16 10:56:13;;;;;;;7.03;4.45;;;12.30;99.90;;;;;;928203;149;27475;-85
2023/12/16 10:58:40;;;;;;;8.17;4.83;;;12.30;99.90;;;;;;927082;150;27452;-85
2023/12/16 11:01:06;;;;;;;5.42;3.90;;;12.30;99.90;;;;;;918151;150;27362;-86
2023/12/16 11:03:54;;;;;;;5.72;4.05;;;12.40;99.90;;;;;;933222;149;27378;-86
2023/12/16 11:06:32;;;;;;;6.15;4.00;;;12.40;99.90;;;;;;936351;148;27904;-82
2023/12/16 11:08:59;;;;;;;6.35;3.85;;;12.40;99.90;;;;;;909684;152;27385;-83
2023/12/16 11:11:25;;;;;;;4.72;3.67;;;12.40;99.90;;;;;;926646;150;27361;-83
2023/12/16 11:13:54;;;;;;;6.03;4.20;;;12.40;99.90;;;;;;925880;149;27704;-83
2023/12/16 11:16:18;;;;;;;9.00;4.47;;;12.50;99.90;;;;;;926652;150;27347;-82
2023/12/16 11:18:45;;;;;;;9.08;3.98;;;12.60;99.90;;;;;;925052;150;27891;-83
2023/12/16 11:21:14;;;;;;;6.22;3.80;;;12.60;99.90;;;;;;927358;150;27427;-83
2023/12/16 11:23:41;;;;;;;5.05;3.58;;;12.60;99.90;;;;;;926146;150;27491;-83
2023/12/16 11:26:07;;;;;;;4.60;3.42;;;12.70;99.90;;;;;;927400;150;27364;-83
2023/12/16 11:28:34;;;;;;;6.37;3.40;;;12.70;99.90;;;;;;917918;151;27376;-83
2023/12/16 11:31:00;;;;;;;5.33;3.83;;;12.70;99.30;;;;;;943965;147;27339;-83
2023/12/16 11:33:43;;;;;;;6.20;3.37;;;12.70;99.10;;;;;;928074;149;27277;-82
2023/12/16 11:36:09;;;;;;;6.60;3.33;;;12.70;99.30;;;;;;927172;149;27326;-83
2023/12/16 11:38:35;;;;;;;6.50;3.60;;;12.70;99.30;;;;;;928131;149;27400;-83
2023/12/16 11:41:02;;;;;;;7.35;3.98;;;12.70;99.50;;;;;;920878;150;27341;-83
2023/12/16 11:43:49;;;;;;;5.55;3.35;;;12.70;99.30;;;;;;943212;147;27453;-83
2023/12/16 11:46:37;;;;;;;6.28;3.67;;;12.80;99.10;;;;;;929281;150;27301;-84
2023/12/16 11:49:04;;;;;;;7.20;3.05;;;12.80;99.10;;;;;;921528;151;27760;-82
2023/12/16 11:51:31;;;;;;;6.22;3.40;;;12.80;99.00;;;;;;935951;149;27399;-83
2023/12/16 11:53:57;;;;;;;6.08;3.10;;;12.80;98.50;;;;;;926300;150;27340;-83
2023/12/16 11:56:24;;;;;;;4.67;3.05;;;12.80;98.20;;;;;;929524;150;27394;-83
2023/12/16 11:58:50;;;;;;;7.03;2.75;;;12.80;98.20;;;;;;930450;150;27341;-83
2023/12/16 12:01:17;;;;;;;5.07;3.40;;;12.90;97.80;;;;;;921363;150;27283;-83
2023/12/16 12:03:43;;;;;;;9.23;4.12;;;12.90;97.60;;;;;;921620;150;27281;-84
2023/12/16 12:06:10;;;;;;;6.97;3.47;;;12.90;97.40;;;;;;937978;149;27485;-85
2023/12/16 12:08:37;;;;;;;5.58;3.00;;;13.00;97.10;;;;;;936836;149;27450;-84
2023/12/16 12:11:06;;;;;;;5.28;2.45;;;13.00;96.50;;;;;;937886;148;27403;-84
2023/12/16 12:13:30;;;;;;;5.70;2.65;;;13.00;96.40;;;;;;935148;148;27343;-84
2023/12/16 12:15:56;;;;;;;3.35;2.60;;;13.10;96.40;;;;;;933581;149;27345;-84
2023/12/16 12:18:23;;;;;;;6.60;2.83;;;13.10;96.30;;;;;;936432;149;27367;-84
2023/12/16 12:20:50;;;;;;;4.35;2.67;;;13.10;96.20;;;;;;934052;149;27432;-84
2023/12/16 12:23:16;;;;;;;4.72;2.52;;;13.10;96.00;;;;;;934031;149;27401;-84
2023/12/16 12:25:43;;;;;;;5.20;2.85;;;13.20;95.90;;;;;;934857;149;27501;-84
2023/12/16 12:28:09;;;;;;;4.92;2.92;;;13.20;95.60;;;;;;935874;149;27393;-84
2023/12/16 12:30:36;;;;;;;5.07;3.13;;;13.30;95.10;;;;;;938207;149;27385;-85
2023/12/16 12:33:02;;;;;;;4.60;2.55;;;13.40;94.40;;;;;;934408;148;27361;-84
2023/12/16 12:35:29;;;;;;;4.83;2.47;;;13.30;94.10;;;;;;936520;148;27377;-84
2023/12/16 12:37:57;;;;;;;5.00;2.70;;;13.40;94.00;;;;;;934852;149;27333;-84
2023/12/16 12:40:23;;;;;;;5.60;2.80;;;13.40;93.40;;;;;;935400;149;27477;-84
2023/12/16 12:42:49;;;;;;;5.70;2.77;;;13.40;93.10;;;;;;933468;149;27470;-84
2023/12/16 12:45:27;;;;;;;5.78;3.05;;;13.40;92.90;;;;;;934721;148;27336;-84
2023/12/16 12:47:54;;;;;;;2.70;2.42;;;13.40;92.60;;;;;;934180;149;27361;-84
2023/12/16 12:50:23;;;;;;;5.37;3.15;;;13.40;92.00;;;;;;935128;148;27419;-84